ADDS METAR Data INFO
IDs: Format: Raw Decoded Include TAF

Data at: 1138 UTC 17 Jul 2018

KORC 171135Z AUTO 00000KT 10SM CLR 20/16 A3011 RMK AO2
KORC 171115Z AUTO 00000KT 10SM CLR 20/16 A3010 RMK AO2
KORC 171055Z AUTO 00000KT 10SM CLR 20/16 A3010 RMK AO2
KORC 171035Z AUTO 00000KT 10SM CLR 20/17 A3010 RMK AO2
KORC 171015Z AUTO 00000KT 10SM CLR 20/17 A3010 RMK AO2
KORC 170955Z AUTO 00000KT 10SM CLR 20/17 A3010 RMK AO2
KORC 170935Z AUTO 00000KT 10SM CLR 20/17 A3010 RMK AO2
KORC 170915Z AUTO 00000KT 10SM CLR 20/17 A3009 RMK AO2
KORC 170855Z AUTO 08003KT 10SM CLR 21/18 A3009 RMK AO2
KORC 170835Z AUTO 00000KT 10SM CLR 21/18 A3010 RMK AO2
KORC 170815Z AUTO 08003KT 10SM CLR 21/18 A3010 RMK AO2
KORC 170755Z AUTO 00000KT 10SM CLR 21/17 A3011 RMK AO2
KORC 170735Z AUTO 00000KT 10SM CLR 21/18 A3010 RMK AO2
KORC 170715Z AUTO 00000KT 10SM CLR 21/16 A3009 RMK AO2
KORC 170655Z AUTO 00000KT 10SM CLR 21/16 A3009 RMK AO2
KORC 170635Z AUTO 00000KT 10SM CLR 21/18 A3010 RMK AO2
KORC 170615Z AUTO 00000KT 10SM CLR 22/17 A3011 RMK AO2
KORC 170555Z AUTO 00000KT 10SM CLR 21/17 A3011 RMK AO2
KORC 170535Z AUTO 00000KT 10SM CLR 22/17 A3011 RMK AO2
KORC 170515Z AUTO 00000KT 10SM CLR 22/17 A3010 RMK AO2
KORC 170455Z AUTO 00000KT 10SM CLR 23/17 A3011 RMK AO2
KORC 170435Z AUTO 00000KT 10SM CLR 23/17 A3011 RMK AO2
KORC 170415Z AUTO 00000KT 10SM CLR 23/16 A3011 RMK AO2
KORC 170355Z AUTO 00000KT 10SM CLR 22/16 A3010 RMK AO2
KORC 170335Z AUTO 00000KT 10SM CLR 24/16 A3009 RMK AO2
KORC 170315Z AUTO 00000KT 10SM CLR 24/16 A3008 RMK AO2
KORC 170255Z AUTO 00000KT 10SM CLR 24/16 A3008 RMK AO2
KORC 170235Z AUTO 00000KT 10SM CLR 24/16 A3008 RMK AO2
KORC 170215Z AUTO 00000KT 10SM CLR 24/16 A3007 RMK AO2
KORC 170155Z AUTO 00000KT 10SM CLR 25/16 A3007 RMK AO2
KORC 170135Z AUTO 00000KT 10SM CLR 26/16 A3007 RMK AO2
KORC 170115Z AUTO 00000KT 10SM CLR 26/18 A3006 RMK AO2
KORC 170055Z AUTO 00000KT 10SM CLR 27/14 A3006 RMK AO2
KORC 170035Z AUTO 00000KT 10SM CLR 27/15 A3005 RMK AO2
KORC 170015Z AUTO 00000KT 10SM CLR 28/14 A3005 RMK AO2
KORC 162355Z AUTO 00000KT 10SM CLR 28/14 A3006 RMK AO2
KORC 162335Z AUTO 00000KT 10SM CLR 28/14 A3006 RMK AO2
KORC 162315Z AUTO 00000KT 10SM CLR 28/13 A3007 RMK AO2
KORC 162255Z AUTO 00000KT 10SM CLR 28/13 A3007 RMK AO2
KORC 162235Z AUTO 00000KT 10SM CLR 28/13 A3007 RMK AO2
KORC 162215Z AUTO 14003KT 10SM CLR 28/13 A3008 RMK AO2
KORC 162155Z AUTO 19003KT 10SM CLR 28/13 A3009 RMK AO2
KORC 162135Z AUTO 18003KT 10SM CLR 28/14 A3009 RMK AO2
KORC 162115Z AUTO 00000KT 10SM CLR 28/14 A3009 RMK AO2
KORC 162055Z AUTO 00000KT 10SM CLR 27/14 A3010 RMK AO2
KORC 162035Z AUTO 00000KT 10SM CLR 28/13 A3010 RMK AO2
KORC 162015Z AUTO 00000KT 10SM CLR 27/14 A3010 RMK AO2
KORC 161955Z AUTO 13003KT 10SM CLR 28/13 A3011 RMK AO2
KORC 161935Z AUTO 17003KT 10SM CLR 27/14 A3011 RMK AO2
KORC 161915Z AUTO 14004KT 10SM CLR 27/14 A3011 RMK AO2
KORC 161855Z AUTO 19004KT 10SM CLR 27/14 A3011 RMK AO2
KORC 161835Z AUTO 00000KT 10SM CLR 26/12 A3011 RMK AO2
KORC 161815Z AUTO 00000KT 10SM CLR 27/13 A3011 RMK AO2
KORC 161755Z AUTO 14003KT 10SM CLR 26/14 A3012 RMK AO2
KORC 161735Z AUTO 11003KT 10SM CLR 26/14 A3012 RMK AO2
KORC 161715Z AUTO 10003KT 10SM CLR 26/14 A3013 RMK AO2
KORC 161655Z AUTO 00000KT 10SM CLR 25/14 A3013 RMK AO2
KORC 161635Z AUTO 12005KT 10SM CLR 25/15 A3012 RMK AO2
KORC 161615Z AUTO 08004KT 10SM CLR 25/13 A3013 RMK AO2
KORC 161555Z AUTO 10004KT 10SM CLR 24/15 A3012 RMK AO2
KORC 161535Z AUTO 07006KT 10SM CLR 24/14 A3013 RMK AO2
KORC 161515Z AUTO 08004KT 10SM CLR 23/15 A3013 RMK AO2
KORC 161455Z AUTO 08003KT 10SM CLR 23/15 A3012 RMK AO2
KORC 161435Z AUTO 07003KT 10SM CLR 22/15 A3012 RMK AO2
KORC 161415Z AUTO 05003KT 10SM CLR 22/16 A3012 RMK AO2
KORC 161355Z AUTO 05004KT 10SM CLR 21/16 A3012 RMK AO2
KORC 161335Z AUTO 07004KT 10SM CLR 21/16 A3012 RMK AO2
KORC 161315Z AUTO 00000KT 10SM CLR 20/16 A3012 RMK AO2
KORC 161255Z AUTO 01004KT 10SM CLR 19/17 A3012 RMK AO2
KORC 161235Z AUTO 01005KT 10SM CLR 18/16 A3012 RMK AO2
KORC 161215Z AUTO 35005KT 10SM CLR 18/16 A3011 RMK AO2
KORC 161155Z AUTO 02004KT 10SM CLR 18/16 A3011 RMK AO2
KORC 161135Z AUTO 01005KT 10SM CLR 18/16 A3010 RMK AO2
KORC 161115Z AUTO 36004KT 10SM CLR 18/16 A3010 RMK AO2
KORC 161055Z AUTO 01005KT 10SM CLR 18/16 A3009 RMK AO2
KORC 161035Z AUTO 00000KT 10SM CLR 18/16 A3009 RMK AO2
KORC 161015Z AUTO 03003KT 10SM CLR 18/16 A3009 RMK AO2
KORC 160955Z AUTO 35005KT 10SM CLR 18/16 A3009 RMK AO2
KORC 160935Z AUTO 35004KT 10SM CLR 17/16 A3009 RMK AO2
KORC 160915Z AUTO 33003KT 10SM CLR 17/16 A3010 RMK AO2
KORC 160855Z AUTO 00000KT 10SM SCT090 17/16 A3009 RMK AO2
KORC 160835Z AUTO 33003KT 10SM SCT090 18/17 A3009 RMK AO2
KORC 160815Z AUTO 00000KT 10SM SCT090 18/17 A3010 RMK AO2
KORC 160755Z AUTO 00000KT 10SM CLR 19/17 A3009 RMK AO2
KORC 160735Z AUTO 35004KT 10SM SCT120 20/17 A3009 RMK AO2
KORC 160715Z AUTO 01004KT 10SM SCT100 120 20/17 A3008 RMK AO2
KORC 160655Z AUTO 01003KT 10SM BKN110 21/17 A3008 RMK AO2
KORC 160635Z AUTO 00000KT 10SM SCT110 21/18 A3008 RMK AO2
KORC 160615Z AUTO 36004KT 10SM CLR 21/17 A3009 RMK AO2
KORC 160555Z AUTO 01004KT 10SM SCT120 21/17 A3008 RMK AO2
KORC 160535Z AUTO 02004KT 10SM SCT120 21/17 A3009 RMK AO2
KORC 160515Z AUTO 01005KT 10SM CLR 21/17 A3009 RMK AO2
KORC 160455Z AUTO 35006KT 10SM CLR 22/18 A3009 RMK AO2
KORC 160435Z AUTO 36006KT 10SM CLR 22/18 A3008 RMK AO2
KORC 160415Z AUTO 36006KT 10SM CLR 22/19 A3007 RMK AO2
KORC 160355Z AUTO 35006KT 10SM CLR 22/19 A3007 RMK AO2
KORC 160335Z AUTO 01003KT 10SM CLR 23/19 A3006 RMK AO2
KORC 160315Z AUTO 02005KT 10SM CLR 23/20 A3005 RMK AO2
KORC 160255Z AUTO 04005KT 10SM CLR 23/20 A3004 RMK AO2
KORC 160235Z AUTO 02007KT 10SM CLR 24/21 A3004 RMK AO2
KORC 160215Z AUTO 04006KT 10SM CLR 24/21 A3003 RMK AO2
KORC 160155Z AUTO 36009KT 10SM CLR 24/21 A3004 RMK AO2
KORC 160135Z AUTO 36007KT 10SM CLR 24/21 A3004 RMK AO2
KORC 160115Z AUTO 01008KT 10SM SCT044 24/21 A3003 RMK AO2
KORC 160055Z AUTO 01007KT 10SM BKN042 24/21 A3003 RMK AO2
KORC 160035Z AUTO 36010G15KT 10SM SCT040 25/22 A3003 RMK AO2
KORC 160015Z AUTO 01010G15KT 10SM CLR 26/22 A3002 RMK AO2
KORC 152355Z AUTO 36013G19KT 10SM SCT043 26/22 A3002 RMK AO2